createdAt,value
2022-09-01T00:00:49.401Z,5.28
2022-09-01T00:03:53.156Z,6.32
2022-09-01T00:06:55.851Z,10.93
2022-09-01T00:09:58.885Z,1.92
2022-09-01T00:13:01.008Z,4.07
2022-09-01T00:16:04.414Z,4.32
2022-09-01T00:19:07.187Z,7.00
2022-09-01T00:22:09.622Z,1.83
2022-09-01T00:25:11.801Z,3.03
2022-09-01T00:28:13.885Z,3.70
2022-09-01T00:31:16.465Z,2.70
2022-09-01T00:34:20.167Z,2.60
2022-09-01T00:37:22.257Z,6.45
2022-09-01T00:40:24.469Z,2.45
2022-09-01T00:43:41.425Z,8.77
2022-09-01T00:46:55.075Z,1.80
2022-09-01T00:49:58.484Z,1.90
2022-09-01T00:53:01.090Z,2.15
2022-09-01T00:56:05.259Z,3.42
2022-09-01T00:59:09.941Z,2.05
2022-09-01T01:02:12.026Z,5.80
2022-09-01T01:05:15.352Z,1.52
2022-09-01T01:08:20.000Z,5.35
2022-09-01T01:14:24.211Z,3.60
2022-09-01T01:17:26.239Z,3.33
2022-09-01T01:20:52.569Z,5.53
2022-09-01T01:24:29.272Z,2.13
2022-09-01T01:27:33.768Z,3.08
2022-09-01T01:30:52.565Z,4.55
2022-09-01T01:33:57.068Z,3.97
2022-09-01T01:40:03.042Z,2.40
2022-09-01T01:43:05.641Z,3.97
2022-09-01T01:46:11.033Z,5.05
2022-09-01T01:49:20.140Z,2.40
2022-09-01T01:52:26.141Z,3.33
2022-09-01T01:55:30.919Z,3.72
2022-09-01T01:58:35.062Z,3.20
2022-09-01T02:01:38.443Z,4.90
2022-09-01T02:04:43.612Z,3.72
2022-09-01T02:07:50.383Z,2.25
2022-09-01T02:10:55.125Z,4.95
2022-09-01T02:13:57.677Z,3.55
2022-09-01T02:17:02.119Z,4.60
2022-09-01T02:20:04.502Z,6.90
2022-09-01T02:23:11.677Z,2.85
2022-09-01T02:26:17.047Z,3.33
2022-09-01T02:29:22.991Z,2.80
2022-09-01T02:32:25.066Z,3.53
2022-09-01T02:35:36.967Z,2.53
2022-09-01T02:38:43.082Z,2.92
2022-09-01T02:41:48.315Z,2.92
2022-09-01T02:44:50.392Z,2.95
2022-09-01T02:47:54.169Z,3.53
2022-09-01T02:50:57.457Z,4.40
2022-09-01T02:53:59.574Z,2.25
2022-09-01T02:57:01.925Z,3.78
2022-09-01T03:00:20.874Z,3.28
2022-09-01T03:03:24.830Z,7.10
2022-09-01T03:06:28.293Z,2.08
2022-09-01T03:09:32.792Z,3.85
2022-09-01T03:12:34.839Z,4.65
2022-09-01T03:15:37.811Z,4.47
2022-09-01T03:18:40.357Z,3.10
2022-09-01T03:21:44.423Z,7.68
2022-09-01T03:24:46.472Z,2.78
2022-09-01T03:27:48.691Z,2.33
2022-09-01T03:30:52.899Z,4.15
2022-09-01T03:33:58.153Z,2.78
2022-09-01T03:37:01.972Z,1.92
2022-09-01T03:40:09.173Z,4.90
2022-09-01T03:43:13.036Z,2.90
2022-09-01T03:46:21.949Z,4.38
2022-09-01T03:49:27.950Z,2.88
2022-09-01T03:52:30.257Z,3.17
2022-09-01T03:55:34.488Z,3.85
2022-09-01T03:58:36.629Z,5.97
2022-09-01T04:01:41.667Z,6.15
2022-09-01T04:04:44.721Z,3.63
2022-09-01T04:07:48.773Z,3.28
2022-09-01T04:10:54.629Z,6.68
2022-09-01T04:13:56.823Z,4.20
2022-09-01T04:17:17.197Z,3.38
2022-09-01T04:20:20.957Z,5.03
2022-09-01T04:23:32.202Z,2.53
2022-09-01T04:26:34.292Z,2.13
2022-09-01T04:29:38.499Z,2.53
2022-09-01T04:32:40.685Z,2.38
2022-09-01T04:35:43.782Z,2.70
2022-09-01T04:38:47.298Z,2.63
2022-09-01T04:41:50.808Z,3.88
2022-09-01T04:44:54.687Z,2.90
2022-09-01T04:47:56.759Z,3.10
2022-09-01T04:50:59.027Z,1.85
2022-09-01T04:54:03.077Z,4.07
2022-09-01T04:57:09.287Z,2.60
2022-09-01T05:00:22.558Z,2.95
2022-09-01T05:03:24.933Z,3.83
2022-09-01T05:06:28.257Z,2.95
2022-09-01T05:09:38.213Z,2.13
2022-09-01T05:12:41.393Z,2.03
2022-09-01T05:15:47.886Z,5.45
2022-09-01T05:18:50.467Z,5.05
2022-09-01T05:21:54.835Z,4.15
2022-09-01T05:25:03.136Z,2.22
2022-09-01T05:28:05.393Z,2.33
2022-09-01T05:31:07.896Z,4.57
2022-09-01T05:34:13.995Z,2.25
2022-09-01T05:37:16.308Z,2.50
2022-09-01T05:40:19.042Z,6.10
2022-09-01T05:43:21.757Z,4.87
2022-09-01T05:46:28.477Z,1.92
2022-09-01T05:49:33.317Z,3.72
2022-09-01T05:52:37.810Z,1.95
2022-09-01T05:55:40.535Z,2.00
2022-09-01T06:02:09.471Z,5.28
2022-09-01T06:05:13.887Z,4.07
2022-09-01T06:08:18.120Z,3.08
2022-09-01T06:11:22.351Z,2.63
2022-09-01T06:14:24.852Z,2.85
2022-09-01T06:17:30.910Z,2.60
2022-09-01T06:20:40.539Z,3.05
2022-09-01T06:23:43.308Z,3.17
2022-09-01T06:26:46.477Z,4.65
2022-09-01T06:29:55.466Z,2.97
2022-09-01T06:32:57.685Z,7.90
2022-09-01T06:36:04.140Z,4.63
2022-09-01T06:39:07.183Z,2.47
2022-09-01T06:42:11.424Z,2.45
2022-09-01T06:45:17.847Z,3.13
2022-09-01T06:48:20.181Z,2.03
2022-09-01T06:51:23.411Z,6.45
2022-09-01T06:54:25.934Z,3.40
2022-09-01T07:00:52.464Z,2.00
2022-09-01T07:03:58.803Z,1.42
2022-09-01T07:07:54.059Z,1.92
2022-09-01T07:10:28.124Z,6.22
2022-09-01T07:13:30.918Z,1.08
2022-09-01T07:16:51.733Z,12.32
2022-09-01T07:19:56.174Z,1.73
2022-09-01T07:23:06.361Z,3.70
2022-09-01T07:26:10.258Z,1.80
2022-09-01T07:29:13.333Z,1.10
2022-09-01T07:36:25.720Z,1.95
2022-09-01T07:45:59.761Z,3.77
2022-09-01T07:49:29.526Z,11.70
2022-09-01T07:52:25.742Z,1.48
2022-09-01T07:55:29.093Z,1.05
2022-09-01T07:58:33.458Z,4.80
2022-09-01T08:01:36.106Z,3.95
2022-09-01T08:04:40.116Z,0.98
2022-09-01T08:07:54.833Z,1.88
2022-09-01T08:11:04.899Z,1.13
2022-09-01T08:14:07.431Z,1.13
2022-09-01T08:17:18.069Z,2.30
2022-09-01T08:20:35.232Z,0.80
2022-09-01T08:23:38.040Z,1.73
2022-09-01T08:26:40.430Z,5.15
2022-09-01T08:29:42.562Z,8.83
2022-09-01T08:32:44.835Z,1.98
2022-09-01T08:35:49.412Z,5.13
2022-09-01T08:38:52.244Z,3.13
2022-09-01T08:42:23.897Z,8.10
2022-09-01T08:45:43.588Z,5.05
2022-09-01T08:52:28.131Z,2.28
2022-09-01T08:55:40.810Z,3.90
2022-09-01T08:58:43.079Z,6.05
2022-09-01T09:02:20.014Z,2.15
2022-09-01T09:05:36.203Z,2.88
2022-09-01T09:08:53.410Z,1.65
2022-09-01T09:12:29.237Z,3.00
2022-09-01T09:15:44.817Z,6.10
2022-09-01T09:18:57.919Z,2.47
2022-09-01T09:25:08.310Z,48.33
2022-09-01T09:28:10.728Z,87.65
2022-09-01T09:31:30.358Z,77.43
2022-09-01T09:34:39.892Z,16.73
2022-09-01T09:37:42.079Z,8.43
2022-09-01T09:44:31.460Z,1.08
2022-09-01T09:47:45.478Z,0.80
2022-09-01T09:50:47.597Z,3.78
2022-09-01T09:57:16.419Z,3.95
2022-09-01T10:00:34.146Z,0.80
2022-09-01T10:03:46.159Z,4.43
2022-09-01T10:06:48.237Z,2.05
2022-09-01T10:09:51.293Z,2.30
2022-09-01T10:12:54.557Z,0.98
2022-09-01T10:16:00.340Z,4.32
2022-09-01T10:19:16.214Z,5.32
2022-09-01T10:22:19.116Z,1.50
2022-09-01T10:28:25.911Z,1.70
2022-09-01T10:31:32.355Z,1.38
2022-09-01T10:34:41.822Z,2.20
2022-09-01T10:37:44.177Z,1.63
2022-09-01T10:41:07.717Z,0.85
2022-09-01T10:44:19.908Z,1.35
2022-09-01T10:47:30.294Z,1.60
2022-09-01T10:50:36.685Z,5.72
2022-09-01T10:53:42.769Z,1.73
2022-09-01T10:56:51.730Z,4.18
2022-09-01T10:59:56.825Z,1.75
2022-09-01T11:03:31.702Z,1.20
2022-09-01T11:07:29.693Z,0.73
2022-09-01T11:10:32.827Z,3.25
2022-09-01T11:13:49.717Z,5.75
2022-09-01T11:17:31.072Z,1.48
2022-09-01T11:20:36.702Z,1.48
2022-09-01T11:23:39.376Z,0.70
2022-09-01T11:26:49.530Z,0.88
2022-09-01T11:29:58.976Z,0.95
2022-09-01T11:33:12.855Z,0.40
2022-09-01T11:36:20.161Z,0.50
2022-09-01T11:39:35.908Z,3.80
2022-09-01T11:42:46.740Z,2.55
2022-09-01T11:45:57.863Z,5.15
2022-09-01T11:49:21.988Z,0.77
2022-09-01T11:52:27.924Z,15.63
2022-09-01T11:55:34.918Z,0.88
2022-09-01T11:58:40.194Z,1.73
2022-09-01T12:01:43.514Z,0.80
2022-09-01T12:04:46.478Z,2.72
2022-09-01T12:07:57.175Z,2.42
2022-09-01T12:11:04.950Z,1.40
2022-09-01T12:14:11.768Z,1.77
2022-09-01T12:17:21.262Z,6.55
2022-09-01T12:20:28.698Z,1.20
2022-09-01T12:23:33.554Z,2.35
2022-09-01T12:26:35.809Z,2.83
2022-09-01T12:29:38.708Z,0.50
2022-09-01T12:32:41.066Z,2.25
2022-09-01T12:35:43.985Z,4.45
2022-09-01T12:38:46.183Z,3.42
2022-09-01T12:42:04.944Z,1.55
2022-09-01T12:45:10.298Z,1.30
2022-09-01T12:48:44.879Z,3.83
2022-09-01T12:51:51.249Z,0.95
2022-09-01T12:55:02.499Z,1.15
2022-09-01T12:58:11.883Z,0.40
2022-09-01T13:01:27.602Z,1.15
2022-09-01T13:04:33.113Z,0.40
2022-09-01T13:07:35.471Z,1.98
2022-09-01T13:10:47.129Z,0.40
2022-09-01T13:13:49.238Z,4.15
2022-09-01T13:16:51.426Z,1.48
2022-09-01T13:19:53.551Z,0.30
2022-09-01T13:22:55.923Z,3.63
2022-09-01T13:26:01.459Z,1.92
2022-09-01T13:29:04.156Z,4.20
2022-09-01T13:32:22.946Z,1.33
2022-09-01T13:35:26.430Z,0.50
2022-09-01T13:38:28.992Z,2.53
2022-09-01T13:41:31.915Z,3.33
2022-09-01T13:44:35.402Z,2.35
2022-09-01T13:48:15.271Z,0.63
2022-09-01T13:51:17.416Z,1.05
2022-09-01T13:54:21.507Z,2.72
2022-09-01T13:57:23.703Z,2.70
2022-09-01T14:00:32.388Z,1.77
2022-09-01T14:03:37.866Z,0.95
2022-09-01T14:06:41.334Z,4.00
2022-09-01T14:09:43.464Z,1.55
2022-09-01T14:12:46.798Z,3.42
2022-09-01T14:15:49.420Z,1.45
2022-09-01T14:18:51.557Z,2.03
2022-09-01T14:21:53.735Z,1.15
2022-09-01T14:24:55.848Z,6.30
2022-09-01T14:27:58.241Z,2.50
2022-09-01T14:34:01.331Z,6.80
2022-09-01T14:37:04.297Z,0.82
2022-09-01T14:40:08.580Z,1.75
2022-09-01T14:43:14.501Z,0.63
2022-09-01T14:46:18.498Z,7.22
2022-09-01T14:49:22.543Z,1.20
2022-09-01T14:52:24.958Z,1.88
2022-09-01T14:55:29.400Z,4.63
2022-09-01T14:58:31.490Z,0.30
2022-09-01T15:01:35.254Z,1.65
2022-09-01T15:04:37.992Z,2.45
2022-09-01T15:07:41.051Z,4.32
2022-09-01T15:10:43.183Z,1.13
2022-09-01T15:13:46.293Z,4.68
2022-09-01T15:16:48.495Z,2.65
2022-09-01T15:19:50.624Z,0.60
2022-09-01T15:22:53.392Z,0.90
2022-09-01T15:25:57.920Z,3.50
2022-09-01T15:29:02.103Z,1.27
2022-09-01T15:32:04.362Z,2.50
2022-09-01T15:35:06.871Z,5.75
2022-09-01T15:38:09.203Z,0.75
2022-09-01T15:41:17.338Z,2.08
2022-09-01T15:44:19.782Z,5.88
2022-09-01T15:47:22.348Z,0.65
2022-09-01T15:50:27.534Z,2.97
2022-09-01T15:53:29.961Z,1.77
2022-09-01T15:56:32.817Z,1.00
2022-09-01T15:59:35.431Z,1.40
2022-09-01T16:02:38.209Z,3.28
2022-09-01T16:05:41.352Z,0.35
2022-09-01T16:08:43.635Z,1.98
2022-09-01T16:11:45.702Z,0.50
2022-09-01T16:14:48.054Z,0.88
2022-09-01T16:18:05.938Z,1.45
2022-09-01T16:21:26.724Z,2.63
2022-09-01T16:24:30.282Z,2.83
2022-09-01T16:27:40.239Z,2.13
2022-09-01T16:30:44.848Z,4.63
2022-09-01T16:33:51.607Z,1.67
2022-09-01T16:37:10.308Z,1.27
2022-09-01T16:40:49.898Z,1.95
2022-09-01T16:44:06.247Z,21.27
2022-09-01T16:47:08.270Z,9.73
2022-09-01T16:50:26.461Z,1.63
2022-09-01T16:53:49.872Z,4.38
2022-09-01T16:57:07.220Z,1.95
2022-09-01T17:00:14.227Z,1.63
2022-09-01T17:03:19.825Z,0.32
2022-09-01T17:06:36.678Z,1.58
2022-09-01T17:09:43.603Z,0.75
2022-09-01T17:12:57.842Z,2.67
2022-09-01T17:19:17.463Z,4.20
2022-09-01T17:22:21.698Z,0.60
2022-09-01T17:25:41.281Z,0.80
2022-09-01T17:29:00.476Z,4.22
2022-09-01T17:32:41.064Z,5.50
2022-09-01T17:36:42.289Z,2.92
2022-09-01T17:39:53.157Z,0.75
2022-09-01T17:43:27.497Z,4.40
2022-09-01T17:46:44.481Z,2.45
2022-09-01T17:50:21.391Z,1.85
2022-09-01T17:53:37.989Z,0.80
2022-09-01T17:57:12.616Z,2.63
2022-09-01T18:03:46.736Z,2.25
2022-09-01T18:07:03.928Z,0.40
2022-09-01T18:10:11.988Z,0.80
2022-09-01T18:13:52.908Z,1.73
2022-09-01T18:17:19.082Z,2.47
2022-09-01T18:20:27.040Z,1.33
2022-09-01T18:23:32.642Z,1.00
2022-09-01T18:26:38.971Z,2.53
2022-09-01T18:29:42.205Z,0.90
2022-09-01T18:33:19.612Z,3.15
2022-09-01T18:36:36.928Z,2.33
2022-09-01T18:40:04.029Z,1.73
2022-09-01T18:43:24.973Z,2.28
2022-09-01T18:46:46.140Z,3.15
2022-09-01T18:50:28.248Z,0.65
2022-09-01T18:53:47.754Z,1.10
2022-09-01T18:57:00.928Z,2.42
2022-09-01T19:00:18.919Z,2.03
2022-09-01T19:03:43.366Z,1.60
2022-09-01T19:07:04.002Z,2.95
2022-09-01T19:10:13.091Z,0.57
2022-09-01T19:16:56.245Z,2.05
2022-09-01T19:20:16.795Z,1.95
2022-09-01T19:23:27.173Z,1.27
2022-09-01T19:26:37.584Z,2.40
2022-09-01T19:29:53.800Z,0.95
2022-09-01T19:32:59.682Z,1.00
2022-09-01T19:36:05.363Z,4.55
2022-09-01T19:39:14.754Z,0.60
2022-09-01T19:42:45.659Z,1.95
2022-09-01T19:46:04.268Z,1.02
2022-09-01T19:49:30.021Z,4.00
2022-09-01T19:52:40.189Z,3.60
2022-09-01T19:55:56.393Z,2.90
2022-09-01T19:59:01.473Z,3.13
2022-09-01T20:02:11.719Z,2.83
2022-09-01T20:05:25.321Z,1.88
2022-09-01T20:08:37.899Z,2.03
2022-09-01T20:11:50.897Z,2.90
2022-09-01T20:14:53.319Z,0.82
2022-09-01T20:18:00.249Z,2.03
2022-09-01T20:21:18.902Z,2.47
2022-09-01T20:24:34.743Z,1.50
2022-09-01T20:28:05.524Z,1.20
2022-09-01T20:31:17.225Z,2.15
2022-09-01T20:34:44.764Z,1.40
2022-09-01T20:37:52.227Z,2.13
2022-09-01T20:40:56.658Z,0.85
2022-09-01T20:44:01.998Z,0.77
2022-09-01T20:47:07.219Z,1.58
2022-09-01T20:50:14.145Z,1.27
2022-09-01T20:53:31.349Z,1.48
2022-09-01T20:57:14.857Z,0.65
2022-09-01T21:00:21.952Z,1.52
2022-09-01T21:03:41.838Z,1.10
2022-09-01T21:07:12.088Z,0.60
2022-09-01T21:10:24.870Z,0.52
2022-09-01T21:13:39.535Z,1.92
2022-09-01T21:17:14.884Z,1.70
2022-09-01T21:20:32.944Z,3.55
2022-09-01T21:23:35.160Z,0.50
2022-09-01T21:26:38.457Z,2.42
2022-09-01T21:29:45.148Z,1.13
2022-09-01T21:32:47.331Z,1.85
2022-09-01T21:35:50.938Z,0.50
2022-09-01T21:38:53.161Z,1.02
2022-09-01T21:41:56.481Z,1.90
2022-09-01T21:45:00.249Z,0.98
2022-09-01T21:48:02.997Z,5.70
2022-09-01T21:51:05.535Z,0.85
2022-09-01T21:54:08.498Z,1.25
2022-09-01T21:57:10.706Z,1.40
2022-09-01T22:00:17.656Z,0.65
2022-09-01T22:03:20.101Z,0.30
2022-09-01T22:06:23.477Z,1.20
2022-09-01T22:09:25.979Z,0.70
2022-09-01T22:12:28.141Z,1.52
2022-09-01T22:15:30.663Z,1.42
2022-09-01T22:18:32.947Z,1.20
2022-09-01T22:21:36.673Z,0.73
2022-09-01T22:24:39.084Z,0.77
2022-09-01T22:27:41.504Z,0.40
2022-09-01T22:30:47.458Z,0.80
2022-09-01T22:33:49.922Z,0.80
2022-09-01T22:36:52.202Z,1.13
2022-09-01T22:39:54.276Z,1.00
2022-09-01T22:42:56.435Z,1.27
2022-09-01T22:45:59.633Z,2.00
2022-09-01T22:49:04.276Z,1.88
2022-09-01T22:52:06.398Z,2.40
2022-09-01T22:55:09.583Z,2.15
2022-09-01T22:58:12.601Z,0.53
2022-09-01T23:01:17.745Z,1.33
2022-09-01T23:04:19.967Z,0.40
2022-09-01T23:07:22.040Z,0.45
2022-09-01T23:10:24.729Z,0.30
2022-09-01T23:13:28.474Z,0.60
2022-09-01T23:19:33.773Z,1.65
2022-09-01T23:22:35.820Z,1.98
2022-09-01T23:25:37.869Z,0.80
2022-09-01T23:28:41.135Z,1.10
2022-09-01T23:31:44.034Z,0.40
2022-09-01T23:34:46.220Z,0.52
2022-09-01T23:37:48.371Z,1.42
2022-09-01T23:40:54.247Z,1.95
2022-09-01T23:43:58.032Z,3.38
2022-09-01T23:47:00.098Z,0.35
2022-09-01T23:50:02.865Z,0.40
2022-09-01T23:53:04.924Z,0.40
2022-09-01T23:56:19.506Z,1.17
2022-09-01T23:59:24.310Z,3.35
